Time,TemperatureF,DewpointF,PressureIn,WindDirection,WindDirectionDegrees,WindSpeedMPH,WindSpeedGustMPH,Humidity,HourlyPrecipIn,Conditions,Clouds,dailyrainin,SoftwareType,DateUTC
2013-10-08 00:00:00,68.5,65.5,29.85,South,180,0.6,1.3,90,0.00,,FEW028,0.00,VWS V13.01,2013-10-07 14:00:00,
2013-10-08 00:15:00,68.5,65.5,29.85,South,180,0.6,1.3,90,0.00,,FEW028,0.00,VWS V13.01,2013-10-07 14:15:00,
2013-10-08 00:30:00,68.3,65.3,29.85,South,180,0.6,2.5,90,0.00,,FEW028,0.00,VWS V13.01,2013-10-07 14:30:00,
2013-10-08 00:45:00,68.3,65.3,29.84,South,180,0.6,2.5,90,0.00,,FEW028,0.00,VWS V13.01,2013-10-07 14:45:00,
2013-10-08 01:00:00,68.2,65.2,29.84,South,180,0.6,1.3,90,0.00,,FEW028,0.00,VWS V13.01,2013-10-07 15:00:00,
2013-10-08 01:15:00,67.8,65.1,29.83,South,180,0.6,0.0,91,0.00,,FEW028,0.00,VWS V13.01,2013-10-07 15:15:00,
2013-10-08 01:30:00,67.4,65.0,29.83,South,180,0.6,0.0,92,0.00,,FEW028,0.00,VWS V13.01,2013-10-07 15:30:00,
2013-10-08 01:45:00,67.1,64.7,29.82,SSE,158,0.6,1.3,92,0.00,,FEW028,0.00,VWS V13.01,2013-10-07 15:45:00,
2013-10-08 02:00:00,67.2,64.8,29.82,South,180,1.9,3.8,92,0.00,,FEW028,0.00,VWS V13.01,2013-10-07 16:00:00,
2013-10-08 02:15:00,67.4,64.7,29.82,South,180,0.6,3.8,91,0.00,,FEW028,0.00,VWS V13.01,2013-10-07 16:15:00,
2013-10-08 02:30:00,67.4,64.7,29.81,SSE,158,0.6,3.8,91,0.00,,FEW028,0.00,VWS V13.01,2013-10-07 16:30:00,
2013-10-08 02:45:00,66.6,64.2,29.81,SE,135,0.6,2.5,92,0.00,,FEW028,0.00,VWS V13.01,2013-10-07 16:45:00,
2013-10-08 03:00:00,66.1,63.7,29.81,SE,135,0.6,2.5,92,0.00,,FEW028,0.00,VWS V13.01,2013-10-07 17:00:00,
2013-10-08 03:15:00,65.7,63.6,29.81,SE,135,0.6,2.5,93,0.00,,FEW028,0.00,VWS V13.01,2013-10-07 17:15:00,
2013-10-08 03:30:00,65.3,63.2,29.81,SSE,158,0.6,1.3,93,0.00,,FEW028,0.00,VWS V13.01,2013-10-07 17:30:00,
2013-10-08 03:45:00,65.0,62.9,29.81,SSE,158,0.6,1.3,93,0.00,,FEW028,0.00,VWS V13.01,2013-10-07 17:45:00,
2013-10-08 04:00:00,64.8,62.7,29.81,SSE,158,0.6,1.3,93,0.00,,FEW028,0.00,VWS V13.01,2013-10-07 18:00:00,
2013-10-08 04:15:00,64.9,63.1,29.81,SSW,202,1.9,3.8,94,0.00,,FEW028,0.00,VWS V13.01,2013-10-07 18:15:00,
2013-10-08 04:30:00,65.0,62.9,29.81,South,180,0.6,2.5,93,0.00,,FEW028,0.00,VWS V13.01,2013-10-07 18:30:00,
2013-10-08 04:45:00,65.2,62.8,29.82,SSW,202,1.9,3.8,92,0.00,,FEW028,0.00,VWS V13.01,2013-10-07 18:45:00,
2013-10-08 05:00:00,65.5,62.8,29.82,SSW,202,1.9,3.8,91,0.00,,FEW028,0.00,VWS V13.01,2013-10-07 19:00:00,
2013-10-08 05:15:00,65.8,63.1,29.82,SSW,202,3.1,5.0,91,0.00,,FEW028,0.00,VWS V13.01,2013-10-07 19:15:00,
2013-10-08 05:30:00,65.9,62.9,29.83,SSW,202,3.1,5.0,90,0.00,,FEW028,0.00,VWS V13.01,2013-10-07 19:30:00,
2013-10-08 05:45:00,66.0,63.0,29.83,SSW,202,3.1,6.2,90,0.00,,FEW028,0.00,VWS V13.01,2013-10-07 19:45:00,
2013-10-08 06:00:00,66.1,62.8,29.84,SSW,202,3.1,7.5,89,0.00,,FEW028,0.00,VWS V13.01,2013-10-07 20:00:00,
2013-10-08 06:15:00,66.4,62.7,29.84,SSW,202,3.1,6.2,88,0.00,,FEW028,0.00,VWS V13.01,2013-10-07 20:15:00,
2013-10-08 06:36:00,66.8,63.1,29.84,SSW,202,3.1,6.2,88,0.00,,FEW028,0.00,VWS V13.01,2013-10-07 20:36:00,
2013-10-08 06:41:00,68.2,63.9,29.84,SSW,201,4.4,6.2,86,0.00,,FEW028,0.00,VWS V13.01,2013-10-07 20:41:00,
2013-10-08 06:46:00,68.7,63.7,29.85,WSW,252,6.9,6.9,84,0.00,,FEW028,0.00,VWS V13.01,2013-10-07 20:46:00,
2013-10-08 07:51:00,74.3,63.5,29.86,South,178,1.9,6.2,69,0.00,,FEW025,0.00,VWS V13.01,2013-10-07 21:51:00,
2013-10-08 07:56:00,75.2,64.3,29.86,South,172,0.6,6.2,69,0.00,,FEW025,0.00,VWS V13.01,2013-10-07 21:56:00,
2013-10-08 08:01:00,76.1,64.4,29.86,South,183,1.9,6.2,67,0.00,,,0.00,VWS V13.01,2013-10-07 22:01:00,
2013-10-08 08:06:00,76.6,65.3,29.86,SSE,168,0.6,6.2,68,0.00,,,0.00,VWS V13.01,2013-10-07 22:06:00,
2013-10-08 08:11:00,77.2,66.2,29.86,SW,221,3.1,6.2,69,0.00,,,0.00,VWS V13.01,2013-10-07 22:11:00,
2013-10-08 08:16:00,77.3,66.8,29.86,South,184,1.9,6.2,70,0.00,,,0.00,VWS V13.01,2013-10-07 22:16:00,
2013-10-08 08:21:00,77.8,67.7,29.86,ESE,111,0.6,6.2,71,0.00,,,0.00,VWS V13.01,2013-10-07 22:21:00,
2013-10-08 08:26:00,78.0,66.2,29.86,SSE,165,0.6,6.2,67,0.00,,,0.00,VWS V13.01,2013-10-07 22:26:00,
2013-10-08 08:31:00,78.8,66.9,29.86,SSE,162,1.9,6.2,67,0.00,,,0.00,VWS V13.01,2013-10-07 22:31:00,
2013-10-08 08:36:00,79.5,67.2,29.86,South,175,0.6,6.2,66,0.00,,,0.00,VWS V13.01,2013-10-07 22:36:00,
2013-10-08 08:45:00,79.5,68.4,29.86,South,180,1.9,5.0,69,0.00,,,0.00,VWS V13.01,2013-10-07 22:45:00,
2013-10-08 09:00:00,80.5,69.4,29.86,ESE,112,3.1,7.5,69,0.00,,,0.00,VWS V13.01,2013-10-07 23:00:00,
2013-10-08 09:15:00,82.0,70.0,29.85,ESE,112,3.1,7.5,67,0.00,,,0.00,VWS V13.01,2013-10-07 23:15:00,
2013-10-08 09:23:00,82.0,70.8,29.85,ENE,65,4.4,6.2,69,0.00,,,0.00,VWS V13.01,2013-10-07 23:23:00,
2013-10-08 09:30:00,81.9,70.3,29.85,ESE,112,4.4,8.7,68,0.00,,,0.00,VWS V13.01,2013-10-07 23:30:00,
2013-10-08 09:45:00,82.5,68.6,29.84,ESE,112,3.1,8.7,63,0.00,,,0.00,VWS V13.01,2013-10-07 23:45:00,
2013-10-08 10:00:00,83.4,69.9,29.84,ESE,112,3.1,7.5,64,0.00,,,0.00,VWS V13.01,2013-10-08 00:00:00,
2013-10-08 10:15:00,84.0,70.1,29.84,ESE,112,4.4,8.7,63,0.00,,,0.00,VWS V13.01,2013-10-08 00:15:00,
2013-10-08 10:30:00,84.2,70.7,29.84,ESE,112,3.1,7.5,64,0.00,,,0.00,VWS V13.01,2013-10-08 00:30:00,
2013-10-08 10:45:00,84.2,69.8,29.83,ENE,68,4.4,8.7,62,0.00,,,0.00,VWS V13.01,2013-10-08 00:45:00,
2013-10-08 11:00:00,84.7,70.2,29.82,East,90,4.4,8.7,62,0.00,,,0.00,VWS V13.01,2013-10-08 01:00:00,
2013-10-08 11:15:00,85.0,71.0,29.83,ESE,112,4.4,8.7,63,0.00,,,0.00,VWS V13.01,2013-10-08 01:15:00,
2013-10-08 11:30:00,84.7,71.6,29.83,ESE,112,5.6,10.0,65,0.00,,,0.00,VWS V13.01,2013-10-08 01:30:00,
2013-10-08 11:45:00,84.3,70.8,29.83,ESE,112,4.4,12.5,64,0.00,,,0.00,VWS V13.01,2013-10-08 01:45:00,
2013-10-08 12:00:00,84.6,71.1,29.82,ESE,112,4.4,12.5,64,0.00,,,0.00,VWS V13.01,2013-10-08 02:00:00,
2013-10-08 12:15:00,84.4,70.0,29.82,East,90,4.4,10.0,62,0.00,,,0.00,VWS V13.01,2013-10-08 02:15:00,
2013-10-08 12:30:00,84.9,70.0,29.82,East,90,4.4,10.0,61,0.00,,,0.00,VWS V13.01,2013-10-08 02:30:00,
2013-10-08 12:45:00,85.0,70.1,29.82,ESE,112,5.6,11.3,61,0.00,,,0.00,VWS V13.01,2013-10-08 02:45:00,
2013-10-08 13:00:00,84.9,70.4,29.82,ESE,112,4.4,8.7,62,0.00,,,0.00,VWS V13.01,2013-10-08 03:00:00,
2013-10-08 13:15:00,85.4,71.4,29.82,East,90,4.4,12.5,63,0.00,,,0.00,VWS V13.01,2013-10-08 03:15:00,
2013-10-08 13:30:00,84.6,71.1,29.81,East,90,5.6,10.0,64,0.00,,,0.00,VWS V13.01,2013-10-08 03:30:00,
2013-10-08 13:45:00,84.7,70.2,29.81,East,90,4.4,12.5,62,0.00,,,0.00,VWS V13.01,2013-10-08 03:45:00,
2013-10-08 14:00:00,84.8,69.9,29.81,East,90,4.4,8.7,61,0.00,,,0.00,VWS V13.01,2013-10-08 04:00:00,
2013-10-08 14:15:00,84.7,70.2,29.80,ENE,68,4.4,10.0,62,0.00,,,0.00,VWS V13.01,2013-10-08 04:15:00,
2013-10-08 14:30:00,83.2,70.7,29.80,ESE,119,4.0,4.0,66,0.00,,,0.00,Wunderground v.1.15,2013-10-08 04:30:00,
2013-10-08 14:45:00,83.6,70.1,29.80,East,90,5.6,11.3,64,0.00,,,0.00,VWS V13.01,2013-10-08 04:45:00,
2013-10-08 15:00:00,83.3,70.8,29.80,East,90,5.6,11.3,66,0.00,,,0.00,VWS V13.01,2013-10-08 05:00:00,
2013-10-08 15:15:00,83.5,70.5,29.79,ESE,112,5.6,12.5,65,0.00,,,0.00,VWS V13.01,2013-10-08 05:15:00,
2013-10-08 15:30:00,83.5,70.9,29.79,East,90,4.4,11.3,66,0.00,,,0.00,VWS V13.01,2013-10-08 05:30:00,
2013-10-08 15:45:00,83.7,70.7,29.79,ESE,112,4.4,11.3,65,0.00,,,0.00,VWS V13.01,2013-10-08 05:45:00,
2013-10-08 16:00:00,82.3,70.7,29.79,ESE,112,4.4,7.5,68,0.00,,,0.00,VWS V13.01,2013-10-08 06:00:00,
2013-10-08 16:15:00,81.5,70.4,29.79,ESE,112,4.4,8.7,69,0.00,,,0.00,VWS V13.01,2013-10-08 06:15:00,
2013-10-08 16:30:00,81.3,70.2,29.79,ESE,112,3.1,7.5,69,0.00,,,0.00,VWS V13.01,2013-10-08 06:30:00,
2013-10-08 16:45:00,80.7,70.4,29.80,ESE,112,3.1,7.5,71,0.00,,,0.00,VWS V13.01,2013-10-08 06:45:00,
2013-10-08 17:00:00,80.1,70.3,29.80,ESE,112,1.9,7.5,72,0.00,,,0.00,VWS V13.01,2013-10-08 07:00:00,
2013-10-08 17:15:00,79.5,70.1,29.80,ESE,112,3.1,6.2,73,0.00,,,0.00,VWS V13.01,2013-10-08 07:15:00,
2013-10-08 17:30:00,78.8,70.2,29.80,ESE,112,1.9,5.0,75,0.00,,,0.00,VWS V13.01,2013-10-08 07:30:00,
2013-10-08 17:45:00,78.2,70.0,29.81,ESE,112,1.9,5.0,76,0.00,,,0.00,VWS V13.01,2013-10-08 07:45:00,
2013-10-08 18:00:00,77.6,69.4,29.81,ESE,112,1.9,5.0,76,0.00,,,0.00,VWS V13.01,2013-10-08 08:00:00,
2013-10-08 18:15:00,77.1,69.3,29.82,ESE,112,1.9,5.0,77,0.00,,,0.00,VWS V13.01,2013-10-08 08:15:00,
2013-10-08 18:30:00,76.5,69.1,29.82,ESE,112,0.6,2.5,78,0.00,,,0.00,VWS V13.01,2013-10-08 08:30:00,
2013-10-08 18:45:00,75.9,69.3,29.82,ESE,112,0.6,1.3,80,0.00,,,0.00,VWS V13.01,2013-10-08 08:45:00,
2013-10-08 19:00:00,75.3,69.4,29.83,South,180,1.9,2.5,82,0.00,,,0.00,VWS V13.01,2013-10-08 09:00:00,
2013-10-08 19:15:00,74.5,69.3,29.83,South,180,1.9,2.5,84,0.00,,,0.00,VWS V13.01,2013-10-08 09:15:00,
2013-10-08 19:30:00,73.8,69.0,29.84,South,180,0.6,2.5,85,0.00,,,0.00,VWS V13.01,2013-10-08 09:30:00,
2013-10-08 19:45:00,73.1,68.7,29.84,South,180,0.6,1.3,86,0.00,,,0.00,VWS V13.01,2013-10-08 09:45:00,
2013-10-08 20:00:00,72.6,68.5,29.85,South,180,0.6,1.3,87,0.00,,,0.00,VWS V13.01,2013-10-08 10:00:00,
2013-10-08 20:15:00,72.3,68.2,29.85,South,180,0.6,2.5,87,0.00,,,0.00,VWS V13.01,2013-10-08 10:15:00,
2013-10-08 20:30:00,71.9,68.2,29.86,South,180,0.6,2.5,88,0.00,,,0.00,VWS V13.01,2013-10-08 10:30:00,
2013-10-08 20:45:00,71.7,68.0,29.86,South,180,0.6,1.3,88,0.00,,,0.00,VWS V13.01,2013-10-08 10:45:00,
2013-10-08 21:00:00,71.3,67.9,29.86,South,180,0.6,2.5,89,0.00,,,0.00,VWS V13.01,2013-10-08 11:00:00,
2013-10-08 21:15:00,71.3,68.2,29.87,South,180,0.6,1.3,90,0.00,,,0.00,VWS V13.01,2013-10-08 11:15:00,
2013-10-08 21:30:00,71.1,68.0,29.87,South,180,0.6,1.3,90,0.00,,,0.00,VWS V13.01,2013-10-08 11:30:00,
2013-10-08 21:45:00,71.0,67.9,29.88,SSE,158,0.6,1.3,90,0.00,,,0.00,VWS V13.01,2013-10-08 11:45:00,
2013-10-08 22:00:00,70.8,67.7,29.88,SSE,158,0.6,0.0,90,0.00,,,0.00,VWS V13.01,2013-10-08 12:00:00,
2013-10-08 22:15:00,70.6,67.8,29.88,SSE,158,0.6,1.3,91,0.00,,,0.00,VWS V13.01,2013-10-08 12:15:00,
2013-10-08 22:30:00,70.6,67.8,29.88,SSE,158,0.6,1.3,91,0.00,,,0.00,VWS V13.01,2013-10-08 12:30:00,
2013-10-08 22:45:00,70.4,67.7,29.88,SSE,158,0.6,0.0,91,0.00,,,0.00,VWS V13.01,2013-10-08 12:45:00,
2013-10-08 23:00:00,70.2,67.8,29.88,SSE,158,0.6,1.3,92,0.00,,,0.00,VWS V13.01,2013-10-08 13:00:00,
2013-10-08 23:15:00,70.2,67.4,29.88,South,180,1.9,2.5,91,0.00,,,0.00,VWS V13.01,2013-10-08 13:15:00,
2013-10-08 23:30:00,69.9,67.5,29.88,South,180,1.9,5.0,92,0.00,,,0.00,VWS V13.01,2013-10-08 13:30:00,
2013-10-08 23:45:00,70.2,66.8,29.87,SSW,202,3.1,6.2,89,0.00,,,0.00,VWS V13.01,2013-10-08 13:45:00,